Terminal Aerodrome Forecast
Issued by NWS

Home | Current Version | Previous Version | Text Only | Print | Product List | Glossary On
Versions: 1 2 3 4 5 6 7 8 9 10 11 12 13 14 15 16 17 18 19 20 21
000
FTUS44 KJAN 282321
TAFGTR
TAF
KGTR 282321Z 2900/2924 09005KT P6SM VCSH SCT040 BKN100
     FM290200 14004KT P6SM SCT100 BKN250
     FM290700 15005KT 6SM BR BKN015
     FM290900 15003KT 4SM BR OVC003
     FM291200 16003KT 4SM BR OVC007
     FM291400 16003KT P6SM BKN015
     FM291500 17004KT P6SM SCT025
     FM291800 17005KT P6SM VCTS SCT040CB=

USA.gov is the U.S. government's official web portal to all federal, state and local government web resources and services.